sensor_id;sensor_type;location;lat;lon;timestamp;P1;durP1;ratioP1;P2;durP2;ratioP2
177;SDS011;77;48.792;9.032;2022-10-19T00:02:15;20.67;;;11.87;;
177;SDS011;77;48.792;9.032;2022-10-19T00:04:40;21.90;;;12.60;;
177;SDS011;77;48.792;9.032;2022-10-19T00:07:05;20.33;;;12.80;;
177;SDS011;77;48.792;9.032;2022-10-19T00:09:30;20.60;;;12.23;;
177;SDS011;77;48.792;9.032;2022-10-19T00:11:55;20.33;;;11.03;;
177;SDS011;77;48.792;9.032;2022-10-19T00:14:21;17.50;;;11.23;;
177;SDS011;77;48.792;9.032;2022-10-19T00:16:47;19.73;;;10.47;;
177;SDS011;77;48.792;9.032;2022-10-19T00:19:14;17.73;;;8.37;;
177;SDS011;77;48.792;9.032;2022-10-19T00:21:40;12.87;;;8.53;;
177;SDS011;77;48.792;9.032;2022-10-19T00:24:06;13.30;;;8.30;;
177;SDS011;77;48.792;9.032;2022-10-19T00:26:31;12.43;;;8.07;;
177;SDS011;77;48.792;9.032;2022-10-19T00:28:56;12.30;;;8.10;;
177;SDS011;77;48.792;9.032;2022-10-19T00:31:22;20.57;;;8.93;;
177;SDS011;77;48.792;9.032;2022-10-19T00:33:47;17.53;;;8.10;;
177;SDS011;77;48.792;9.032;2022-10-19T00:36:19;13.80;;;8.10;;
177;SDS011;77;48.792;9.032;2022-10-19T00:38:44;14.90;;;8.50;;
177;SDS011;77;48.792;9.032;2022-10-19T00:41:10;14.70;;;7.93;;
177;SDS011;77;48.792;9.032;2022-10-19T00:43:48;16.67;;;7.93;;
177;SDS011;77;48.792;9.032;2022-10-19T00:46:14;14.00;;;8.13;;
177;SDS011;77;48.792;9.032;2022-10-19T00:48:39;16.77;;;8.97;;
177;SDS011;77;48.792;9.032;2022-10-19T00:51:04;17.67;;;8.60;;
177;SDS011;77;48.792;9.032;2022-10-19T00:53:31;24.23;;;9.90;;
177;SDS011;77;48.792;9.032;2022-10-19T00:55:56;16.97;;;11.13;;
177;SDS011;77;48.792;9.032;2022-10-19T00:58:22;21.10;;;12.30;;
177;SDS011;77;48.792;9.032;2022-10-19T01:00:47;20.50;;;11.90;;
177;SDS011;77;48.792;9.032;2022-10-19T01:03:13;18.73;;;11.53;;
177;SDS011;77;48.792;9.032;2022-10-19T01:05:38;22.87;;;11.30;;
177;SDS011;77;48.792;9.032;2022-10-19T01:08:03;19.90;;;11.97;;
177;SDS011;77;48.792;9.032;2022-10-19T01:10:32;20.53;;;11.93;;
177;SDS011;77;48.792;9.032;2022-10-19T01:13:03;20.07;;;9.93;;
177;SDS011;77;48.792;9.032;2022-10-19T01:15:31;22.23;;;10.07;;
177;SDS011;77;48.792;9.032;2022-10-19T01:18:01;15.90;;;9.47;;
177;SDS011;77;48.792;9.032;2022-10-19T01:23:17;16.40;;;8.60;;
177;SDS011;77;48.792;9.032;2022-10-19T01:25:50;20.37;;;8.70;;
177;SDS011;77;48.792;9.032;2022-10-19T01:28:21;15.20;;;8.63;;
177;SDS011;77;48.792;9.032;2022-10-19T01:30:51;16.70;;;8.50;;
177;SDS011;77;48.792;9.032;2022-10-19T01:33:20;19.07;;;8.40;;
177;SDS011;77;48.792;9.032;2022-10-19T01:35:50;15.13;;;8.97;;
177;SDS011;77;48.792;9.032;2022-10-19T01:38:21;17.93;;;11.73;;
177;SDS011;77;48.792;9.032;2022-10-19T01:40:51;19.93;;;12.60;;
177;SDS011;77;48.792;9.032;2022-10-19T01:43:19;23.67;;;13.73;;
177;SDS011;77;48.792;9.032;2022-10-19T01:45:46;25.57;;;15.30;;
177;SDS011;77;48.792;9.032;2022-10-19T01:48:14;23.40;;;14.20;;
177;SDS011;77;48.792;9.032;2022-10-19T01:50:43;22.80;;;14.23;;
177;SDS011;77;48.792;9.032;2022-10-19T01:53:10;20.80;;;13.20;;
177;SDS011;77;48.792;9.032;2022-10-19T01:55:36;22.90;;;14.10;;
177;SDS011;77;48.792;9.032;2022-10-19T01:58:02;21.47;;;13.43;;
177;SDS011;77;48.792;9.032;2022-10-19T02:00:29;24.47;;;14.30;;
177;SDS011;77;48.792;9.032;2022-10-19T02:02:55;24.17;;;15.23;;
177;SDS011;77;48.792;9.032;2022-10-19T02:05:25;28.20;;;16.93;;
177;SDS011;77;48.792;9.032;2022-10-19T02:07:53;27.00;;;16.90;;
177;SDS011;77;48.792;9.032;2022-10-19T02:10:19;21.60;;;12.70;;
177;SDS011;77;48.792;9.032;2022-10-19T02:12:45;18.20;;;10.73;;
177;SDS011;77;48.792;9.032;2022-10-19T02:15:12;17.80;;;10.40;;
177;SDS011;77;48.792;9.032;2022-10-19T02:17:39;18.73;;;10.23;;
177;SDS011;77;48.792;9.032;2022-10-19T02:20:06;20.63;;;10.80;;
177;SDS011;77;48.792;9.032;2022-10-19T02:22:32;23.20;;;9.67;;
177;SDS011;77;48.792;9.032;2022-10-19T02:24:58;23.47;;;9.60;;
177;SDS011;77;48.792;9.032;2022-10-19T02:27:23;25.33;;;10.83;;
177;SDS011;77;48.792;9.032;2022-10-19T02:29:48;19.10;;;10.70;;
177;SDS011;77;48.792;9.032;2022-10-19T02:32:14;25.20;;;10.10;;
177;SDS011;77;48.792;9.032;2022-10-19T02:34:39;27.33;;;10.90;;
177;SDS011;77;48.792;9.032;2022-10-19T02:37:05;25.17;;;10.67;;
177;SDS011;77;48.792;9.032;2022-10-19T02:39:31;29.87;;;11.10;;
177;SDS011;77;48.792;9.032;2022-10-19T02:41:58;28.77;;;11.10;;
177;SDS011;77;48.792;9.032;2022-10-19T02:44:25;30.27;;;12.50;;
177;SDS011;77;48.792;9.032;2022-10-19T02:46:53;38.47;;;11.47;;
177;SDS011;77;48.792;9.032;2022-10-19T02:49:19;26.50;;;11.57;;
177;SDS011;77;48.792;9.032;2022-10-19T02:51:55;38.73;;;12.67;;
177;SDS011;77;48.792;9.032;2022-10-19T02:54:20;35.80;;;12.93;;
177;SDS011;77;48.792;9.032;2022-10-19T02:56:48;41.70;;;14.47;;
177;SDS011;77;48.792;9.032;2022-10-19T02:59:13;38.37;;;14.23;;
177;SDS011;77;48.792;9.032;2022-10-19T03:01:38;33.30;;;14.70;;
177;SDS011;77;48.792;9.032;2022-10-19T03:04:03;34.50;;;16.27;;
177;SDS011;77;48.792;9.032;2022-10-19T03:06:29;33.53;;;14.40;;
177;SDS011;77;48.792;9.032;2022-10-19T03:08:54;39.70;;;15.40;;
177;SDS011;77;48.792;9.032;2022-10-19T03:11:19;38.50;;;16.70;;
177;SDS011;77;48.792;9.032;2022-10-19T03:13:45;37.27;;;14.90;;
177;SDS011;77;48.792;9.032;2022-10-19T03:16:11;31.57;;;14.10;;
177;SDS011;77;48.792;9.032;2022-10-19T03:18:36;41.47;;;15.10;;
177;SDS011;77;48.792;9.032;2022-10-19T03:21:02;38.33;;;14.97;;
177;SDS011;77;48.792;9.032;2022-10-19T03:23:28;38.10;;;15.70;;
177;SDS011;77;48.792;9.032;2022-10-19T03:25:53;35.40;;;15.50;;
177;SDS011;77;48.792;9.032;2022-10-19T03:28:18;41.03;;;16.13;;
177;SDS011;77;48.792;9.032;2022-10-19T03:30:45;42.13;;;15.50;;
177;SDS011;77;48.792;9.032;2022-10-19T03:33:10;42.50;;;15.67;;
177;SDS011;77;48.792;9.032;2022-10-19T03:35:35;40.33;;;16.60;;
177;SDS011;77;48.792;9.032;2022-10-19T03:38:00;33.13;;;15.33;;
177;SDS011;77;48.792;9.032;2022-10-19T03:40:25;35.17;;;15.60;;
177;SDS011;77;48.792;9.032;2022-10-19T03:42:50;34.90;;;14.03;;
177;SDS011;77;48.792;9.032;2022-10-19T03:45:16;37.13;;;14.53;;
177;SDS011;77;48.792;9.032;2022-10-19T03:47:42;37.77;;;15.13;;
177;SDS011;77;48.792;9.032;2022-10-19T03:50:07;34.90;;;14.97;;
177;SDS011;77;48.792;9.032;2022-10-19T03:52:33;35.30;;;14.93;;
177;SDS011;77;48.792;9.032;2022-10-19T03:54:58;40.50;;;16.00;;
177;SDS011;77;48.792;9.032;2022-10-19T03:57:23;45.90;;;17.07;;
177;SDS011;77;48.792;9.032;2022-10-19T03:59:48;36.63;;;14.80;;
177;SDS011;77;48.792;9.032;2022-10-19T04:02:13;37.43;;;15.90;;
177;SDS011;77;48.792;9.032;2022-10-19T04:04:40;37.40;;;14.87;;
177;SDS011;77;48.792;9.032;2022-10-19T04:07:05;36.60;;;16.10;;
177;SDS011;77;48.792;9.032;2022-10-19T04:09:30;45.20;;;16.43;;
177;SDS011;77;48.792;9.032;2022-10-19T04:11:55;38.97;;;16.10;;
177;SDS011;77;48.792;9.032;2022-10-19T04:14:21;37.80;;;15.20;;
177;SDS011;77;48.792;9.032;2022-10-19T04:16:46;34.70;;;16.00;;
177;SDS011;77;48.792;9.032;2022-10-19T04:19:12;34.07;;;15.03;;
177;SDS011;77;48.792;9.032;2022-10-19T04:21:39;34.70;;;15.70;;
177;SDS011;77;48.792;9.032;2022-10-19T04:24:05;31.93;;;14.33;;
177;SDS011;77;48.792;9.032;2022-10-19T04:26:31;30.80;;;13.50;;
177;SDS011;77;48.792;9.032;2022-10-19T04:28:56;30.20;;;13.50;;
177;SDS011;77;48.792;9.032;2022-10-19T04:31:22;27.47;;;13.93;;
177;SDS011;77;48.792;9.032;2022-10-19T04:33:47;30.23;;;13.50;;
177;SDS011;77;48.792;9.032;2022-10-19T04:36:12;24.17;;;12.70;;
177;SDS011;77;48.792;9.032;2022-10-19T04:38:38;28.33;;;12.93;;
177;SDS011;77;48.792;9.032;2022-10-19T04:41:05;24.27;;;13.20;;
177;SDS011;77;48.792;9.032;2022-10-19T04:43:30;20.87;;;12.20;;
177;SDS011;77;48.792;9.032;2022-10-19T04:45:55;24.20;;;13.00;;
177;SDS011;77;48.792;9.032;2022-10-19T04:48:21;22.63;;;12.93;;
177;SDS011;77;48.792;9.032;2022-10-19T04:50:46;23.10;;;12.97;;
177;SDS011;77;48.792;9.032;2022-10-19T04:53:11;24.13;;;13.20;;
177;SDS011;77;48.792;9.032;2022-10-19T04:55:40;21.93;;;12.63;;
177;SDS011;77;48.792;9.032;2022-10-19T04:58:05;22.70;;;12.47;;
177;SDS011;77;48.792;9.032;2022-10-19T05:00:30;20.47;;;12.37;;
177;SDS011;77;48.792;9.032;2022-10-19T05:02:55;20.77;;;11.97;;
177;SDS011;77;48.792;9.032;2022-10-19T05:05:21;22.37;;;12.10;;
177;SDS011;77;48.792;9.032;2022-10-19T05:07:47;22.10;;;12.70;;
177;SDS011;77;48.792;9.032;2022-10-19T05:10:12;22.53;;;12.30;;
177;SDS011;77;48.792;9.032;2022-10-19T05:12:39;23.83;;;13.00;;
177;SDS011;77;48.792;9.032;2022-10-19T05:15:04;25.40;;;12.53;;
177;SDS011;77;48.792;9.032;2022-10-19T05:17:30;22.80;;;12.90;;
177;SDS011;77;48.792;9.032;2022-10-19T05:19:55;24.77;;;14.30;;
177;SDS011;77;48.792;9.032;2022-10-19T05:22:20;26.30;;;13.97;;
177;SDS011;77;48.792;9.032;2022-10-19T05:24:46;26.97;;;15.70;;
177;SDS011;77;48.792;9.032;2022-10-19T05:27:11;27.43;;;14.93;;
177;SDS011;77;48.792;9.032;2022-10-19T05:29:38;26.47;;;15.40;;
177;SDS011;77;48.792;9.032;2022-10-19T05:32:03;27.50;;;15.63;;
177;SDS011;77;48.792;9.032;2022-10-19T05:34:28;29.37;;;15.90;;
177;SDS011;77;48.792;9.032;2022-10-19T05:36:54;30.70;;;16.90;;
177;SDS011;77;48.792;9.032;2022-10-19T05:39:19;30.30;;;16.30;;
177;SDS011;77;48.792;9.032;2022-10-19T05:41:44;35.37;;;17.43;;
177;SDS011;77;48.792;9.032;2022-10-19T05:44:12;33.40;;;17.57;;
177;SDS011;77;48.792;9.032;2022-10-19T05:46:39;35.10;;;17.50;;
177;SDS011;77;48.792;9.032;2022-10-19T05:49:04;40.53;;;18.10;;
177;SDS011;77;48.792;9.032;2022-10-19T05:51:29;31.47;;;16.97;;
177;SDS011;77;48.792;9.032;2022-10-19T05:53:54;34.70;;;16.57;;
177;SDS011;77;48.792;9.032;2022-10-19T05:56:20;35.60;;;17.83;;
177;SDS011;77;48.792;9.032;2022-10-19T05:58:46;34.00;;;16.87;;
177;SDS011;77;48.792;9.032;2022-10-19T06:01:11;35.43;;;17.53;;
177;SDS011;77;48.792;9.032;2022-10-19T06:03:38;35.27;;;17.13;;
177;SDS011;77;48.792;9.032;2022-10-19T06:06:03;38.40;;;17.77;;
177;SDS011;77;48.792;9.032;2022-10-19T06:08:29;36.80;;;17.43;;
177;SDS011;77;48.792;9.032;2022-10-19T06:11:02;40.27;;;18.57;;
177;SDS011;77;48.792;9.032;2022-10-19T06:13:28;40.07;;;18.40;;
177;SDS011;77;48.792;9.032;2022-10-19T06:15:53;35.87;;;18.60;;
177;SDS011;77;48.792;9.032;2022-10-19T06:18:18;38.80;;;18.00;;
177;SDS011;77;48.792;9.032;2022-10-19T06:20:44;35.37;;;17.87;;
177;SDS011;77;48.792;9.032;2022-10-19T06:23:10;34.33;;;17.60;;
177;SDS011;77;48.792;9.032;2022-10-19T06:25:35;29.53;;;17.40;;
177;SDS011;77;48.792;9.032;2022-10-19T06:28:00;29.87;;;17.53;;
177;SDS011;77;48.792;9.032;2022-10-19T06:30:26;34.40;;;16.07;;
177;SDS011;77;48.792;9.032;2022-10-19T06:32:51;35.90;;;19.13;;
177;SDS011;77;48.792;9.032;2022-10-19T06:35:16;36.43;;;17.90;;
177;SDS011;77;48.792;9.032;2022-10-19T06:37:43;36.73;;;18.43;;
177;SDS011;77;48.792;9.032;2022-10-19T06:40:08;37.87;;;18.20;;
177;SDS011;77;48.792;9.032;2022-10-19T06:42:34;33.60;;;18.83;;
177;SDS011;77;48.792;9.032;2022-10-19T06:44:59;35.77;;;17.60;;
177;SDS011;77;48.792;9.032;2022-10-19T06:47:24;35.77;;;18.80;;
177;SDS011;77;48.792;9.032;2022-10-19T06:49:49;32.50;;;18.20;;
177;SDS011;77;48.792;9.032;2022-10-19T06:52:14;31.47;;;18.37;;
177;SDS011;77;48.792;9.032;2022-10-19T06:54:41;35.03;;;17.83;;
177;SDS011;77;48.792;9.032;2022-10-19T06:57:06;39.00;;;18.83;;
177;SDS011;77;48.792;9.032;2022-10-19T06:59:31;42.97;;;19.40;;
177;SDS011;77;48.792;9.032;2022-10-19T07:01:56;35.37;;;19.03;;
177;SDS011;77;48.792;9.032;2022-10-19T07:04:21;32.20;;;19.37;;
177;SDS011;77;48.792;9.032;2022-10-19T07:06:47;36.83;;;19.40;;
177;SDS011;77;48.792;9.032;2022-10-19T07:09:12;36.83;;;19.53;;
177;SDS011;77;48.792;9.032;2022-10-19T07:11:38;32.77;;;18.83;;
177;SDS011;77;48.792;9.032;2022-10-19T07:14:03;35.20;;;19.50;;
177;SDS011;77;48.792;9.032;2022-10-19T07:16:29;42.50;;;21.03;;
177;SDS011;77;48.792;9.032;2022-10-19T07:18:54;44.10;;;19.80;;
177;SDS011;77;48.792;9.032;2022-10-19T07:21:20;47.33;;;19.20;;
177;SDS011;77;48.792;9.032;2022-10-19T07:23:46;37.90;;;19.47;;
177;SDS011;77;48.792;9.032;2022-10-19T07:26:13;28.00;;;17.93;;
177;SDS011;77;48.792;9.032;2022-10-19T07:28:40;30.53;;;17.90;;
177;SDS011;77;48.792;9.032;2022-10-19T07:31:06;32.03;;;17.53;;
177;SDS011;77;48.792;9.032;2022-10-19T07:33:31;29.23;;;16.50;;
177;SDS011;77;48.792;9.032;2022-10-19T07:36:00;29.93;;;17.30;;
177;SDS011;77;48.792;9.032;2022-10-19T07:38:25;29.20;;;17.33;;
177;SDS011;77;48.792;9.032;2022-10-19T07:40:50;40.00;;;17.97;;
177;SDS011;77;48.792;9.032;2022-10-19T07:43:15;23.70;;;15.53;;
177;SDS011;77;48.792;9.032;2022-10-19T07:45:42;27.93;;;15.20;;
177;SDS011;77;48.792;9.032;2022-10-19T07:48:07;23.10;;;15.07;;
177;SDS011;77;48.792;9.032;2022-10-19T07:50:32;27.83;;;15.17;;
177;SDS011;77;48.792;9.032;2022-10-19T07:52:57;22.87;;;15.90;;
177;SDS011;77;48.792;9.032;2022-10-19T07:55:22;25.80;;;15.93;;
177;SDS011;77;48.792;9.032;2022-10-19T07:57:48;27.07;;;15.63;;
177;SDS011;77;48.792;9.032;2022-10-19T08:00:13;28.33;;;15.30;;
177;SDS011;77;48.792;9.032;2022-10-19T08:02:40;20.23;;;14.40;;
177;SDS011;77;48.792;9.032;2022-10-19T08:05:05;19.63;;;13.57;;
177;SDS011;77;48.792;9.032;2022-10-19T08:07:31;21.80;;;14.10;;
177;SDS011;77;48.792;9.032;2022-10-19T08:09:56;21.60;;;14.07;;
177;SDS011;77;48.792;9.032;2022-10-19T08:12:21;24.53;;;12.90;;
177;SDS011;77;48.792;9.032;2022-10-19T08:14:47;26.00;;;14.67;;
177;SDS011;77;48.792;9.032;2022-10-19T08:17:12;21.93;;;13.57;;
177;SDS011;77;48.792;9.032;2022-10-19T08:19:38;19.03;;;12.87;;
177;SDS011;77;48.792;9.032;2022-10-19T08:22:03;18.33;;;12.83;;
177;SDS011;77;48.792;9.032;2022-10-19T08:24:29;18.07;;;12.33;;
177;SDS011;77;48.792;9.032;2022-10-19T08:26:54;18.00;;;12.77;;
177;SDS011;77;48.792;9.032;2022-10-19T08:29:19;18.37;;;12.37;;
177;SDS011;77;48.792;9.032;2022-10-19T08:31:45;19.03;;;12.07;;
177;SDS011;77;48.792;9.032;2022-10-19T08:34:11;24.33;;;13.07;;
177;SDS011;77;48.792;9.032;2022-10-19T08:36:38;18.83;;;12.63;;
177;SDS011;77;48.792;9.032;2022-10-19T08:39:03;17.53;;;11.60;;
177;SDS011;77;48.792;9.032;2022-10-19T08:41:31;18.43;;;12.20;;
177;SDS011;77;48.792;9.032;2022-10-19T08:44:07;22.47;;;12.20;;
177;SDS011;77;48.792;9.032;2022-10-19T08:46:37;18.23;;;12.60;;
177;SDS011;77;48.792;9.032;2022-10-19T08:49:05;18.57;;;12.13;;
177;SDS011;77;48.792;9.032;2022-10-19T08:51:33;17.30;;;11.73;;
177;SDS011;77;48.792;9.032;2022-10-19T08:54:01;15.90;;;11.30;;
177;SDS011;77;48.792;9.032;2022-10-19T08:56:31;12.90;;;9.10;;
177;SDS011;77;48.792;9.032;2022-10-19T08:59:00;14.60;;;10.63;;
177;SDS011;77;48.792;9.032;2022-10-19T09:01:32;15.93;;;10.47;;
177;SDS011;77;48.792;9.032;2022-10-19T09:03:58;15.97;;;10.50;;
177;SDS011;77;48.792;9.032;2022-10-19T09:06:25;15.80;;;10.73;;
177;SDS011;77;48.792;9.032;2022-10-19T09:08:51;21.57;;;10.70;;
177;SDS011;77;48.792;9.032;2022-10-19T09:11:19;18.33;;;10.73;;
177;SDS011;77;48.792;9.032;2022-10-19T09:13:46;18.77;;;12.17;;
177;SDS011;77;48.792;9.032;2022-10-19T09:16:13;16.17;;;11.53;;
177;SDS011;77;48.792;9.032;2022-10-19T09:18:38;14.10;;;10.10;;
177;SDS011;77;48.792;9.032;2022-10-19T09:21:04;14.47;;;10.00;;
177;SDS011;77;48.792;9.032;2022-10-19T09:23:33;15.10;;;10.37;;
177;SDS011;77;48.792;9.032;2022-10-19T09:26:00;15.30;;;9.80;;
177;SDS011;77;48.792;9.032;2022-10-19T09:28:34;16.10;;;9.13;;
177;SDS011;77;48.792;9.032;2022-10-19T09:31:02;17.33;;;10.17;;
177;SDS011;77;48.792;9.032;2022-10-19T09:33:29;15.77;;;10.27;;
177;SDS011;77;48.792;9.032;2022-10-19T09:35:56;14.30;;;9.80;;
177;SDS011;77;48.792;9.032;2022-10-19T09:38:23;12.67;;;9.33;;
177;SDS011;77;48.792;9.032;2022-10-19T09:40:49;16.67;;;9.50;;
177;SDS011;77;48.792;9.032;2022-10-19T09:43:14;13.67;;;9.30;;
177;SDS011;77;48.792;9.032;2022-10-19T09:45:42;14.43;;;9.93;;
177;SDS011;77;48.792;9.032;2022-10-19T09:48:13;16.60;;;10.10;;
177;SDS011;77;48.792;9.032;2022-10-19T09:50:41;16.80;;;10.53;;
177;SDS011;77;48.792;9.032;2022-10-19T09:53:13;14.87;;;10.03;;
177;SDS011;77;48.792;9.032;2022-10-19T09:55:40;12.60;;;9.33;;
177;SDS011;77;48.792;9.032;2022-10-19T09:58:14;15.53;;;9.40;;
177;SDS011;77;48.792;9.032;2022-10-19T10:00:43;13.43;;;9.40;;
177;SDS011;77;48.792;9.032;2022-10-19T10:03:20;12.63;;;8.20;;
177;SDS011;77;48.792;9.032;2022-10-19T10:05:46;11.53;;;8.70;;
177;SDS011;77;48.792;9.032;2022-10-19T10:08:12;13.83;;;9.10;;
177;SDS011;77;48.792;9.032;2022-10-19T10:10:42;14.60;;;9.77;;
177;SDS011;77;48.792;9.032;2022-10-19T10:13:09;12.93;;;9.53;;
177;SDS011;77;48.792;9.032;2022-10-19T10:15:40;11.67;;;9.20;;
177;SDS011;77;48.792;9.032;2022-10-19T10:18:08;13.70;;;9.13;;
177;SDS011;77;48.792;9.032;2022-10-19T10:20:35;15.30;;;9.10;;
177;SDS011;77;48.792;9.032;2022-10-19T10:23:01;12.10;;;8.83;;
177;SDS011;77;48.792;9.032;2022-10-19T10:25:27;13.00;;;9.07;;
177;SDS011;77;48.792;9.032;2022-10-19T10:27:54;10.70;;;7.60;;
177;SDS011;77;48.792;9.032;2022-10-19T10:30:19;10.40;;;8.00;;
177;SDS011;77;48.792;9.032;2022-10-19T10:32:46;12.20;;;8.90;;
177;SDS011;77;48.792;9.032;2022-10-19T10:35:15;10.37;;;8.23;;
177;SDS011;77;48.792;9.032;2022-10-19T10:37:43;10.97;;;7.90;;
177;SDS011;77;48.792;9.032;2022-10-19T10:40:14;12.20;;;7.80;;
177;SDS011;77;48.792;9.032;2022-10-19T10:42:43;11.07;;;8.13;;
177;SDS011;77;48.792;9.032;2022-10-19T10:45:14;10.20;;;7.30;;
177;SDS011;77;48.792;9.032;2022-10-19T10:47:40;11.83;;;7.33;;
177;SDS011;77;48.792;9.032;2022-10-19T10:50:14;11.17;;;7.10;;
177;SDS011;77;48.792;9.032;2022-10-19T10:52:41;11.00;;;7.20;;
177;SDS011;77;48.792;9.032;2022-10-19T10:55:19;9.80;;;6.80;;
177;SDS011;77;48.792;9.032;2022-10-19T10:57:45;12.33;;;8.20;;
177;SDS011;77;48.792;9.032;2022-10-19T11:00:12;11.30;;;7.87;;
177;SDS011;77;48.792;9.032;2022-10-19T11:02:39;12.80;;;7.50;;
177;SDS011;77;48.792;9.032;2022-10-19T11:05:07;11.67;;;7.20;;
177;SDS011;77;48.792;9.032;2022-10-19T11:07:34;7.77;;;6.33;;
177;SDS011;77;48.792;9.032;2022-10-19T11:10:03;8.67;;;6.17;;
177;SDS011;77;48.792;9.032;2022-10-19T11:12:32;6.80;;;5.30;;
177;SDS011;77;48.792;9.032;2022-10-19T11:14:59;9.43;;;5.87;;
177;SDS011;77;48.792;9.032;2022-10-19T11:17:27;9.40;;;6.20;;
177;SDS011;77;48.792;9.032;2022-10-19T11:19:53;8.20;;;6.20;;
177;SDS011;77;48.792;9.032;2022-10-19T11:22:19;10.27;;;6.20;;
177;SDS011;77;48.792;9.032;2022-10-19T11:24:50;9.87;;;5.90;;
177;SDS011;77;48.792;9.032;2022-10-19T11:27:23;9.50;;;6.10;;
177;SDS011;77;48.792;9.032;2022-10-19T11:29:57;11.77;;;6.50;;
177;SDS011;77;48.792;9.032;2022-10-19T11:32:26;7.70;;;6.00;;
177;SDS011;77;48.792;9.032;2022-10-19T11:34:56;10.67;;;5.50;;
177;SDS011;77;48.792;9.032;2022-10-19T11:37:26;7.87;;;5.97;;
177;SDS011;77;48.792;9.032;2022-10-19T11:39:56;8.60;;;5.90;;
177;SDS011;77;48.792;9.032;2022-10-19T11:42:29;7.60;;;5.40;;
177;SDS011;77;48.792;9.032;2022-10-19T11:45:01;6.53;;;4.90;;
177;SDS011;77;48.792;9.032;2022-10-19T11:50:15;7.30;;;5.20;;
177;SDS011;77;48.792;9.032;2022-10-19T11:52:44;7.50;;;5.07;;
177;SDS011;77;48.792;9.032;2022-10-19T11:55:12;10.27;;;5.27;;
177;SDS011;77;48.792;9.032;2022-10-19T11:57:42;7.70;;;5.33;;
177;SDS011;77;48.792;9.032;2022-10-19T12:00:11;6.67;;;4.90;;
177;SDS011;77;48.792;9.032;2022-10-19T12:02:42;10.03;;;4.70;;
177;SDS011;77;48.792;9.032;2022-10-19T12:05:08;8.60;;;5.20;;
177;SDS011;77;48.792;9.032;2022-10-19T12:07:40;7.07;;;4.97;;
177;SDS011;77;48.792;9.032;2022-10-19T12:10:12;9.20;;;5.40;;
177;SDS011;77;48.792;9.032;2022-10-19T12:12:41;8.83;;;5.40;;
177;SDS011;77;48.792;9.032;2022-10-19T12:15:19;7.70;;;4.90;;
177;SDS011;77;48.792;9.032;2022-10-19T12:17:46;6.23;;;4.40;;
177;SDS011;77;48.792;9.032;2022-10-19T12:20:14;7.70;;;4.93;;
177;SDS011;77;48.792;9.032;2022-10-19T12:22:41;7.80;;;5.67;;
177;SDS011;77;48.792;9.032;2022-10-19T12:25:10;6.33;;;4.87;;
177;SDS011;77;48.792;9.032;2022-10-19T12:27:37;7.13;;;5.00;;
177;SDS011;77;48.792;9.032;2022-10-19T12:30:06;5.87;;;4.80;;
177;SDS011;77;48.792;9.032;2022-10-19T12:32:33;7.90;;;5.40;;
177;SDS011;77;48.792;9.032;2022-10-19T12:35:03;6.60;;;5.13;;
177;SDS011;77;48.792;9.032;2022-10-19T12:37:32;6.70;;;4.97;;
177;SDS011;77;48.792;9.032;2022-10-19T12:40:01;7.20;;;5.43;;
177;SDS011;77;48.792;9.032;2022-10-19T12:42:28;6.50;;;4.73;;
177;SDS011;77;48.792;9.032;2022-10-19T12:50:37;7.93;;;5.73;;
177;SDS011;77;48.792;9.032;2022-10-19T12:53:21;7.50;;;4.97;;
177;SDS011;77;48.792;9.032;2022-10-19T12:55:47;6.70;;;5.23;;
177;SDS011;77;48.792;9.032;2022-10-19T12:58:21;7.10;;;5.03;;
177;SDS011;77;48.792;9.032;2022-10-19T13:00:56;7.70;;;5.13;;
177;SDS011;77;48.792;9.032;2022-10-19T13:03:21;14.00;;;5.40;;
177;SDS011;77;48.792;9.032;2022-10-19T13:05:55;8.97;;;5.20;;
177;SDS011;77;48.792;9.032;2022-10-19T13:08:23;9.80;;;6.27;;
177;SDS011;77;48.792;9.032;2022-10-19T13:11:01;8.20;;;6.10;;
177;SDS011;77;48.792;9.032;2022-10-19T13:16:30;7.87;;;5.40;;
177;SDS011;77;48.792;9.032;2022-10-19T13:24:33;9.33;;;5.67;;
177;SDS011;77;48.792;9.032;2022-10-19T13:27:18;9.70;;;5.33;;
177;SDS011;77;48.792;9.032;2022-10-19T13:29:47;9.57;;;5.57;;
177;SDS011;77;48.792;9.032;2022-10-19T13:34:52;9.63;;;4.80;;
177;SDS011;77;48.792;9.032;2022-10-19T13:37:17;6.87;;;5.40;;
177;SDS011;77;48.792;9.032;2022-10-19T13:39:44;7.93;;;4.60;;
177;SDS011;77;48.792;9.032;2022-10-19T13:42:20;13.00;;;5.70;;
177;SDS011;77;48.792;9.032;2022-10-19T13:44:46;8.03;;;4.97;;
177;SDS011;77;48.792;9.032;2022-10-19T13:49:57;7.60;;;4.60;;
177;SDS011;77;48.792;9.032;2022-10-19T13:52:29;7.37;;;4.57;;
177;SDS011;77;48.792;9.032;2022-10-19T13:55:12;7.00;;;5.07;;
177;SDS011;77;48.792;9.032;2022-10-19T13:57:43;8.20;;;4.40;;
177;SDS011;77;48.792;9.032;2022-10-19T14:00:11;6.47;;;4.60;;
177;SDS011;77;48.792;9.032;2022-10-19T14:02:53;6.50;;;5.30;;
177;SDS011;77;48.792;9.032;2022-10-19T14:05:23;7.50;;;5.00;;
177;SDS011;77;48.792;9.032;2022-10-19T14:07:59;9.37;;;5.50;;
177;SDS011;77;48.792;9.032;2022-10-19T14:10:28;7.43;;;4.90;;
177;SDS011;77;48.792;9.032;2022-10-19T14:12:54;11.60;;;5.03;;
177;SDS011;77;48.792;9.032;2022-10-19T14:15:22;6.30;;;4.90;;
177;SDS011;77;48.792;9.032;2022-10-19T14:17:48;5.10;;;4.40;;
177;SDS011;77;48.792;9.032;2022-10-19T14:20:21;8.90;;;4.70;;
177;SDS011;77;48.792;9.032;2022-10-19T14:22:47;4.93;;;4.17;;
177;SDS011;77;48.792;9.032;2022-10-19T14:25:15;10.20;;;4.80;;
177;SDS011;77;48.792;9.032;2022-10-19T14:27:42;6.27;;;4.50;;
177;SDS011;77;48.792;9.032;2022-10-19T14:30:15;6.50;;;4.30;;
177;SDS011;77;48.792;9.032;2022-10-19T14:32:44;6.17;;;4.40;;
177;SDS011;77;48.792;9.032;2022-10-19T14:35:15;11.77;;;5.00;;
177;SDS011;77;48.792;9.032;2022-10-19T14:37:41;8.87;;;5.10;;
177;SDS011;77;48.792;9.032;2022-10-19T14:40:23;6.10;;;4.90;;
177;SDS011;77;48.792;9.032;2022-10-19T14:42:49;6.53;;;4.53;;
177;SDS011;77;48.792;9.032;2022-10-19T14:45:15;6.80;;;5.00;;
177;SDS011;77;48.792;9.032;2022-10-19T14:47:54;6.70;;;5.30;;
177;SDS011;77;48.792;9.032;2022-10-19T14:50:20;9.90;;;5.20;;
177;SDS011;77;48.792;9.032;2022-10-19T14:52:46;13.40;;;4.90;;
177;SDS011;77;48.792;9.032;2022-10-19T14:55:14;7.97;;;5.23;;
177;SDS011;77;48.792;9.032;2022-10-19T14:57:40;6.40;;;5.03;;
177;SDS011;77;48.792;9.032;2022-10-19T15:00:13;7.50;;;5.17;;
177;SDS011;77;48.792;9.032;2022-10-19T15:02:41;6.83;;;4.80;;
177;SDS011;77;48.792;9.032;2022-10-19T15:05:14;7.80;;;5.40;;
177;SDS011;77;48.792;9.032;2022-10-19T15:07:41;6.80;;;5.43;;
177;SDS011;77;48.792;9.032;2022-10-19T15:10:07;7.30;;;5.90;;
177;SDS011;77;48.792;9.032;2022-10-19T15:12:33;6.40;;;4.87;;
177;SDS011;77;48.792;9.032;2022-10-19T15:14:59;8.43;;;4.83;;
177;SDS011;77;48.792;9.032;2022-10-19T15:17:26;11.20;;;5.80;;
177;SDS011;77;48.792;9.032;2022-10-19T15:19:52;8.67;;;5.13;;
177;SDS011;77;48.792;9.032;2022-10-19T15:22:18;7.37;;;5.13;;
177;SDS011;77;48.792;9.032;2022-10-19T15:24:54;7.83;;;5.20;;
177;SDS011;77;48.792;9.032;2022-10-19T15:27:20;8.40;;;5.50;;
177;SDS011;77;48.792;9.032;2022-10-19T15:29:52;8.63;;;5.83;;
177;SDS011;77;48.792;9.032;2022-10-19T15:32:20;10.00;;;5.50;;
177;SDS011;77;48.792;9.032;2022-10-19T15:34:47;7.53;;;5.40;;
177;SDS011;77;48.792;9.032;2022-10-19T15:37:15;7.10;;;5.30;;
177;SDS011;77;48.792;9.032;2022-10-19T15:39:41;10.43;;;5.47;;
177;SDS011;77;48.792;9.032;2022-10-19T15:45:02;11.83;;;5.40;;
177;SDS011;77;48.792;9.032;2022-10-19T15:47:27;8.17;;;5.33;;
177;SDS011;77;48.792;9.032;2022-10-19T15:49:55;8.17;;;5.43;;
177;SDS011;77;48.792;9.032;2022-10-19T15:52:21;7.87;;;5.97;;
177;SDS011;77;48.792;9.032;2022-10-19T15:54:47;7.80;;;5.33;;
177;SDS011;77;48.792;9.032;2022-10-19T15:57:20;6.03;;;4.93;;
177;SDS011;77;48.792;9.032;2022-10-19T15:59:45;8.27;;;5.90;;
177;SDS011;77;48.792;9.032;2022-10-19T16:02:11;8.97;;;5.60;;
177;SDS011;77;48.792;9.032;2022-10-19T16:04:37;6.77;;;5.67;;
177;SDS011;77;48.792;9.032;2022-10-19T16:07:03;11.63;;;5.63;;
177;SDS011;77;48.792;9.032;2022-10-19T16:09:29;9.97;;;5.60;;